createdAt,value
2023-04-03T00:01:27.916Z,101410.94
2023-04-03T00:03:55.209Z,101478.91
2023-04-03T00:06:24.842Z,101483.28
2023-04-03T00:08:53.743Z,101466.72
2023-04-03T00:11:22.798Z,101385.66
2023-04-03T00:13:49.683Z,101474.56
2023-04-03T00:16:19.518Z,101482.41
2023-04-03T00:18:47.480Z,101495.50
2023-04-03T00:21:15.174Z,101491.13
2023-04-03T00:23:41.968Z,101487.63
2023-04-03T00:26:08.914Z,101498.13
2023-04-03T00:28:36.112Z,101491.13
2023-04-03T00:31:03.149Z,101487.59
2023-04-03T00:33:30.439Z,101483.25
2023-04-03T00:35:58.596Z,101489.38
2023-04-03T00:38:26.630Z,101498.09
2023-04-03T00:40:53.625Z,101501.59
2023-04-03T00:43:26.082Z,101497.19
2023-04-03T00:46:02.777Z,101484.06
2023-04-03T00:48:42.208Z,101494.56
2023-04-03T00:51:14.087Z,101501.56
2023-04-03T00:54:05.281Z,101493.69
2023-04-03T00:56:32.580Z,101497.19
2023-04-03T00:59:32.246Z,101499.78
2023-04-03T01:02:03.766Z,101475.41
2023-04-03T01:04:37.284Z,101501.56
2023-04-03T01:07:18.967Z,101495.50
2023-04-03T01:09:49.417Z,101486.75
2023-04-03T01:12:25.675Z,101485.00
2023-04-03T01:14:55.701Z,101514.69
2023-04-03T01:17:31.781Z,101503.34
2023-04-03T01:20:08.957Z,101488.50
2023-04-03T01:22:58.463Z,101499.88
2023-04-03T01:25:28.572Z,101499.81
2023-04-03T01:27:57.862Z,101493.69
2023-04-03T01:30:32.198Z,101497.19
2023-04-03T01:32:59.692Z,101498.06
2023-04-03T01:35:28.909Z,101495.47
2023-04-03T01:37:56.549Z,101463.22
2023-04-03T01:40:26.711Z,101452.78
2023-04-03T01:42:53.667Z,101485.91
2023-04-03T01:45:23.389Z,101468.47
2023-04-03T01:47:50.692Z,101437.97
2023-04-03T01:50:20.980Z,101490.25
2023-04-03T01:52:47.896Z,101488.50
2023-04-03T01:55:22.577Z,101496.34
2023-04-03T01:57:49.285Z,101504.22
2023-04-03T02:00:19.145Z,101491.13
2023-04-03T02:02:56.797Z,101493.75
2023-04-03T02:05:24.157Z,101493.75
2023-04-03T02:07:52.309Z,101501.59
2023-04-03T02:10:19.551Z,101496.38
2023-04-03T02:12:47.135Z,101503.38
2023-04-03T02:15:16.029Z,101506.00
2023-04-03T02:17:43.449Z,101494.63
2023-04-03T02:20:14.012Z,101498.16
2023-04-03T02:22:42.233Z,101500.75
2023-04-03T02:25:11.743Z,101485.06
2023-04-03T02:27:39.399Z,101487.63
2023-04-03T02:30:18.888Z,101492.91
2023-04-03T02:32:46.416Z,101499.00
2023-04-03T02:35:14.731Z,101487.72
2023-04-03T02:37:41.881Z,101497.31
2023-04-03T02:40:09.449Z,101458.94
2023-04-03T02:42:37.930Z,101452.81
2023-04-03T02:45:06.026Z,101508.69
2023-04-03T02:47:38.978Z,101481.59
2023-04-03T02:50:05.840Z,101487.75
2023-04-03T02:52:33.393Z,101491.25
2023-04-03T02:55:02.050Z,101506.06
2023-04-03T02:57:30.282Z,101514.78
2023-04-03T02:59:58.110Z,101505.19
2023-04-03T03:02:28.659Z,101500.81
2023-04-03T03:04:55.306Z,101512.16
2023-04-03T03:07:23.088Z,101494.69
2023-04-03T03:09:51.443Z,101499.13
2023-04-03T03:12:22.990Z,101501.75
2023-04-03T03:14:51.375Z,101495.63
2023-04-03T03:17:19.437Z,101500.00
2023-04-03T03:19:48.172Z,101514.00
2023-04-03T03:22:25.885Z,101511.38
2023-04-03T03:25:00.126Z,101509.63
2023-04-03T03:27:27.311Z,101504.44
2023-04-03T03:29:53.984Z,101487.00
2023-04-03T03:32:24.305Z,101507.06
2023-04-03T03:34:51.897Z,101506.22
2023-04-03T03:37:21.577Z,101503.59
2023-04-03T03:39:52.674Z,101505.34
2023-04-03T03:42:19.399Z,101515.84
2023-04-03T03:44:50.744Z,101459.13
2023-04-03T03:47:17.406Z,101514.13
2023-04-03T03:49:44.649Z,101511.50
2023-04-03T03:52:13.735Z,101494.03
2023-04-03T03:54:40.897Z,101502.78
2023-04-03T03:57:09.785Z,101494.06
2023-04-03T03:59:37.613Z,101510.63
2023-04-03T04:02:06.077Z,101517.63
2023-04-03T04:04:34.177Z,101525.50
2023-04-03T04:07:02.284Z,101520.25
2023-04-03T04:09:28.915Z,101523.75
2023-04-03T04:11:56.343Z,101523.75
2023-04-03T04:14:24.357Z,101522.00
2023-04-03T04:16:53.476Z,101528.97
2023-04-03T04:19:20.595Z,101523.78
2023-04-03T04:21:47.927Z,101515.03
2023-04-03T04:24:18.853Z,101501.94
2023-04-03T04:26:46.911Z,101531.59
2023-04-03T04:29:16.221Z,101490.59
2023-04-03T04:34:36.313Z,101435.59
2023-04-03T04:37:05.809Z,101468.78
2023-04-03T04:39:36.928Z,101535.97
2023-04-03T04:42:09.005Z,101474.00
2023-04-03T04:44:38.233Z,101545.56
2023-04-03T04:47:04.914Z,101549.91
2023-04-03T04:49:32.898Z,101496.66
2023-04-03T04:51:59.799Z,101548.16
2023-04-03T04:54:27.944Z,101528.09
2023-04-03T04:56:57.890Z,101535.94
2023-04-03T04:59:26.899Z,101542.06
2023-04-03T05:01:53.531Z,101521.97
2023-04-03T05:04:20.330Z,101525.44
2023-04-03T05:06:49.149Z,101545.50
2023-04-03T05:09:16.555Z,101538.50
2023-04-03T05:11:45.941Z,101552.50
2023-04-03T05:14:14.866Z,101563.84
2023-04-03T05:16:42.388Z,101567.34
2023-04-03T05:19:12.373Z,101571.72
2023-04-03T05:21:46.426Z,101528.94
2023-04-03T05:24:16.298Z,101471.31
2023-04-03T05:26:43.708Z,101508.84
2023-04-03T05:29:11.572Z,101492.25
2023-04-03T05:31:48.309Z,101526.31
2023-04-03T05:34:15.141Z,101581.31
2023-04-03T05:36:42.656Z,101552.50
2023-04-03T05:42:00.948Z,101501.84
2023-04-03T05:44:43.510Z,101545.47
2023-04-03T05:47:14.564Z,101537.59
2023-04-03T05:49:42.121Z,101606.63
2023-04-03T05:52:24.240Z,101607.50
2023-04-03T05:54:51.743Z,101604.88
2023-04-03T05:57:21.751Z,101607.50
2023-04-03T05:59:49.109Z,101584.75
2023-04-03T06:02:18.591Z,101609.22
2023-04-03T06:07:30.750Z,101612.66
2023-04-03T06:09:58.407Z,101595.19
2023-04-03T06:12:25.574Z,101623.13
2023-04-03T06:14:54.662Z,101568.91
2023-04-03T06:17:21.496Z,101620.47
2023-04-03T06:19:48.636Z,101622.22
2023-04-03T06:22:18.545Z,101604.75
2023-04-03T06:24:46.816Z,101632.75
2023-04-03T06:27:19.211Z,101640.59
2023-04-03T06:29:48.507Z,101638.00
2023-04-03T06:32:22.130Z,101603.03
2023-04-03T06:37:59.015Z,101645.00
2023-04-03T06:40:44.561Z,101589.97
2023-04-03T06:43:12.079Z,101549.78
2023-04-03T06:45:39.314Z,101649.41
2023-04-03T06:48:40.782Z,101648.59
2023-04-03T06:51:09.824Z,101586.56
2023-04-03T06:59:16.536Z,101603.19
2023-04-03T07:01:48.623Z,101646.78
2023-04-03T07:04:16.216Z,101663.31
2023-04-03T07:06:45.500Z,101650.13
2023-04-03T07:09:13.933Z,101637.84
2023-04-03T07:11:41.224Z,101663.09
2023-04-03T07:14:12.418Z,101672.63
2023-04-03T07:16:48.825Z,101649.00
2023-04-03T07:19:22.649Z,101681.16
2023-04-03T07:21:51.418Z,101640.91
2023-04-03T07:24:30.459Z,101687.84
2023-04-03T07:29:38.262Z,101633.09
2023-04-03T07:32:08.775Z,101640.00
2023-04-03T07:34:37.612Z,101694.09
2023-04-03T07:37:17.374Z,101641.63
2023-04-03T07:39:51.172Z,101652.78
2023-04-03T07:42:19.049Z,101607.25
2023-04-03T07:44:52.154Z,101678.75
2023-04-03T07:47:24.474Z,101637.69
2023-04-03T07:49:58.184Z,101653.16
2023-04-03T07:52:25.908Z,101641.72
2023-04-03T07:54:52.753Z,101638.38
2023-04-03T07:57:36.322Z,101702.19
2023-04-03T08:00:09.835Z,101647.91
2023-04-03T08:02:57.282Z,101694.06
2023-04-03T08:05:30.257Z,101693.97
2023-04-03T08:07:57.286Z,101645.72
2023-04-03T08:10:33.465Z,101640.22
2023-04-03T08:13:07.716Z,101699.28
2023-04-03T08:15:42.496Z,101677.59
2023-04-03T08:18:19.091Z,101664.59
2023-04-03T08:20:47.757Z,101673.59
2023-04-03T08:23:18.094Z,101674.72
2023-04-03T08:25:47.844Z,101699.09
2023-04-03T08:28:16.164Z,101615.41
2023-04-03T08:30:47.401Z,101649.19
2023-04-03T08:33:16.933Z,101699.72
2023-04-03T08:35:45.504Z,101660.28
2023-04-03T08:38:19.409Z,101648.28
2023-04-03T08:40:51.242Z,101692.44
2023-04-03T08:43:36.553Z,101670.09
2023-04-03T08:46:07.744Z,101672.47
2023-04-03T08:48:41.693Z,101654.00
2023-04-03T08:51:21.821Z,101693.00
2023-04-03T08:54:16.529Z,101681.19
2023-04-03T08:56:45.455Z,101666.44
2023-04-03T08:59:24.299Z,101653.44
2023-04-03T09:01:53.220Z,101618.78
2023-04-03T09:04:20.226Z,101683.56
2023-04-03T09:06:53.940Z,101690.63
2023-04-03T09:09:42.037Z,101675.81
2023-04-03T09:12:26.728Z,101703.84
2023-04-03T09:15:08.610Z,101676.81
2023-04-03T09:17:57.276Z,101707.47
2023-04-03T09:21:01.823Z,101695.19
2023-04-03T09:23:45.738Z,101705.66
2023-04-03T09:26:27.646Z,101669.88
2023-04-03T09:29:01.646Z,101637.50
2023-04-03T09:31:55.644Z,101689.94
2023-04-03T09:34:27.808Z,101695.22
2023-04-03T09:36:57.329Z,101626.22
2023-04-03T09:39:30.040Z,101646.34
2023-04-03T09:42:22.632Z,101687.50
2023-04-03T09:45:06.893Z,101681.25
2023-04-03T09:47:39.182Z,101676.69
2023-04-03T09:50:23.292Z,101686.06
2023-04-03T09:52:53.549Z,101692.03
2023-04-03T09:55:31.140Z,101684.28
2023-04-03T09:58:03.103Z,101659.06
2023-04-03T10:00:39.790Z,101696.63
2023-04-03T10:03:25.183Z,101687.84
2023-04-03T10:05:55.454Z,101656.56
2023-04-03T10:08:30.044Z,101645.22
2023-04-03T10:11:18.765Z,101683.69
2023-04-03T10:14:02.556Z,101630.47
2023-04-03T10:17:00.232Z,101632.09
2023-04-03T10:19:44.954Z,101677.34
2023-04-03T10:22:39.413Z,101674.66
2023-04-03T10:25:16.190Z,101673.78
2023-04-03T10:28:03.227Z,101676.03
2023-04-03T10:30:54.808Z,101681.00
2023-04-03T10:33:37.966Z,101676.44
2023-04-03T10:36:50.467Z,101673.75
2023-04-03T10:39:34.418Z,101656.03
2023-04-03T10:42:26.454Z,101676.38
2023-04-03T10:45:13.414Z,101651.03
2023-04-03T10:48:09.479Z,101672.47
2023-04-03T10:50:58.179Z,101665.16
2023-04-03T10:53:40.907Z,101604.16
2023-04-03T10:59:28.954Z,101572.91
2023-04-03T11:02:09.744Z,101656.84
2023-04-03T11:04:44.988Z,101659.50
2023-04-03T11:07:23.109Z,101648.91
2023-04-03T11:10:04.943Z,101649.47
2023-04-03T11:12:43.588Z,101622.22
2023-04-03T11:15:21.548Z,101553.88
2023-04-03T11:18:31.796Z,101588.22
2023-04-03T11:21:07.850Z,101627.91
2023-04-03T11:23:49.496Z,101582.19
2023-04-03T11:26:31.010Z,101566.63
2023-04-03T11:29:02.502Z,101635.63
2023-04-03T11:32:07.889Z,101630.13
2023-04-03T11:34:45.901Z,101632.38
2023-04-03T11:37:32.233Z,101612.00
2023-04-03T11:40:08.569Z,101565.94
2023-04-03T11:42:45.721Z,101616.47
2023-04-03T11:45:38.662Z,101614.59
2023-04-03T11:51:20.637Z,101618.44
2023-04-03T11:53:48.131Z,101627.00
2023-04-03T11:56:39.437Z,101609.63
2023-04-03T11:59:06.887Z,101609.44
2023-04-03T12:01:55.967Z,101607.25
2023-04-03T12:04:30.585Z,101600.81
2023-04-03T12:07:15.461Z,101581.53
2023-04-03T12:09:50.234Z,101611.88
2023-04-03T12:15:44.517Z,101589.28
2023-04-03T12:18:51.449Z,101598.91
2023-04-03T12:21:48.658Z,101594.25
2023-04-03T12:24:20.703Z,101596.03
2023-04-03T12:26:58.538Z,101596.44
2023-04-03T12:29:42.164Z,101584.50
2023-04-03T12:32:19.372Z,101596.19
2023-04-03T12:38:30.760Z,101589.91
2023-04-03T12:41:19.332Z,101587.88
2023-04-03T12:44:29.971Z,101578.59
2023-04-03T12:47:06.411Z,101527.03
2023-04-03T12:49:47.018Z,101573.81
2023-04-03T12:52:26.661Z,101552.63
2023-04-03T12:57:36.695Z,101545.56
2023-04-03T13:00:32.471Z,101565.69
2023-04-03T13:03:00.469Z,101574.69
2023-04-03T13:08:17.137Z,101556.97
2023-04-03T13:10:56.487Z,101559.78
2023-04-03T13:13:25.757Z,101463.06
2023-04-03T13:15:56.834Z,101493.91
2023-04-03T13:18:51.512Z,101573.16
2023-04-03T13:21:34.610Z,101500.75
2023-04-03T13:24:15.291Z,101555.69
2023-04-03T13:26:43.695Z,101568.63
2023-04-03T13:29:30.929Z,101544.72
2023-04-03T13:32:04.888Z,101564.53
2023-04-03T13:35:08.060Z,101555.78
2023-04-03T13:37:38.759Z,101545.16
2023-04-03T13:40:09.867Z,101550.13
2023-04-03T13:42:50.876Z,101533.94
2023-04-03T13:45:31.851Z,101449.66
2023-04-03T13:48:24.003Z,101532.84
2023-04-03T13:51:21.918Z,101494.59
2023-04-03T13:53:57.724Z,101536.09
2023-04-03T13:56:45.591Z,101556.81
2023-04-03T13:59:18.280Z,101537.50
2023-04-03T14:02:10.599Z,101545.41
2023-04-03T14:04:48.852Z,101527.72
2023-04-03T14:10:18.358Z,101522.97
2023-04-03T14:12:49.488Z,101491.56
2023-04-03T14:15:34.207Z,101513.25
2023-04-03T14:20:45.127Z,101462.19
2023-04-03T14:23:18.678Z,101499.53
2023-04-03T14:25:45.370Z,101455.03
2023-04-03T14:28:20.106Z,101485.03
2023-04-03T14:31:03.739Z,101509.34
2023-04-03T14:33:36.086Z,101519.91
2023-04-03T14:36:10.861Z,101496.16
2023-04-03T14:38:40.758Z,101518.72
2023-04-03T14:41:16.090Z,101503.41
2023-04-03T14:43:48.229Z,101488.00
2023-04-03T14:49:12.207Z,101507.84
2023-04-03T14:51:43.010Z,101510.63
2023-04-03T14:54:18.589Z,101503.09
2023-04-03T14:56:46.407Z,101464.97
2023-04-03T14:59:15.878Z,101504.88
2023-04-03T15:01:45.672Z,101499.59
2023-04-03T15:04:22.599Z,101491.81
2023-04-03T15:07:07.339Z,101495.59
2023-04-03T15:09:40.135Z,101511.31
2023-04-03T15:15:06.083Z,101483.41
2023-04-03T15:17:42.690Z,101468.59
2023-04-03T15:20:22.973Z,101507.13
2023-04-03T15:22:53.654Z,101468.78
2023-04-03T15:25:25.294Z,101498.41
2023-04-03T15:27:55.808Z,101485.50
2023-04-03T15:30:23.335Z,101491.63
2023-04-03T15:32:52.833Z,101435.88
2023-04-03T15:35:21.348Z,101439.31
2023-04-03T15:40:29.946Z,101468.91
2023-04-03T15:43:03.299Z,101411.50
2023-04-03T15:45:32.002Z,101396.03
2023-04-03T15:48:00.293Z,101429.97
2023-04-03T15:50:28.400Z,101493.72
2023-04-03T15:52:56.648Z,101450.34
2023-04-03T15:55:36.479Z,101426.91
2023-04-03T16:00:59.153Z,101492.03
2023-04-03T16:03:28.046Z,101484.28
2023-04-03T16:05:55.169Z,101475.69
2023-04-03T16:08:23.667Z,101488.88
2023-04-03T16:10:50.721Z,101496.81
2023-04-03T16:13:21.027Z,101482.78
2023-04-03T16:15:52.768Z,101489.75
2023-04-03T16:18:20.394Z,101482.72
2023-04-03T16:20:49.521Z,101458.94
2023-04-03T16:25:54.485Z,101482.56
2023-04-03T16:28:29.569Z,101478.25
2023-04-03T16:30:59.847Z,101491.81
2023-04-03T16:33:27.932Z,101497.97
2023-04-03T16:35:57.986Z,101493.03
2023-04-03T16:38:25.496Z,101498.75
2023-04-03T16:40:54.052Z,101499.78
2023-04-03T16:43:20.826Z,101489.41
2023-04-03T16:45:47.819Z,101492.22
2023-04-03T16:48:15.138Z,101478.28
2023-04-03T16:50:43.754Z,101481.91
2023-04-03T16:53:10.668Z,101474.22
2023-04-03T16:55:38.920Z,101465.53
2023-04-03T16:58:07.130Z,101483.00
2023-04-03T17:00:36.464Z,101485.66
2023-04-03T17:03:03.455Z,101481.34
2023-04-03T17:05:30.942Z,101499.72
2023-04-03T17:07:57.842Z,101504.94
2023-04-03T17:10:25.838Z,101510.25
2023-04-03T17:12:52.651Z,101503.28
2023-04-03T17:15:22.592Z,101505.19
2023-04-03T17:17:51.794Z,101503.50
2023-04-03T17:20:20.900Z,101473.16
2023-04-03T17:22:48.341Z,101504.47
2023-04-03T17:25:22.419Z,101475.91
2023-04-03T17:27:59.731Z,101493.34
2023-04-03T17:30:26.765Z,101520.44
2023-04-03T17:32:53.608Z,101421.22
2023-04-03T17:35:24.154Z,101463.00
2023-04-03T17:38:00.654Z,101416.97
2023-04-03T17:40:27.739Z,101493.66
2023-04-03T17:42:54.246Z,101536.41
2023-04-03T17:45:21.456Z,101503.31
2023-04-03T17:50:34.891Z,101541.88
2023-04-03T17:53:05.579Z,101513.09
2023-04-03T17:55:32.668Z,101514.84
2023-04-03T17:58:11.100Z,101491.38
2023-04-03T18:00:38.219Z,101551.63
2023-04-03T18:03:05.533Z,101540.28
2023-04-03T18:05:39.756Z,101541.22
2023-04-03T18:08:11.689Z,101523.84
2023-04-03T18:10:40.885Z,101545.66
2023-04-03T18:13:11.550Z,101550.03
2023-04-03T18:15:49.133Z,101541.38
2023-04-03T18:18:17.419Z,101555.47
2023-04-03T18:20:44.076Z,101544.13
2023-04-03T18:23:11.856Z,101552.00
2023-04-03T18:25:40.673Z,101495.38
2023-04-03T18:28:18.629Z,101534.63
2023-04-03T18:30:47.340Z,101555.59
2023-04-03T18:33:13.987Z,101526.84
2023-04-03T18:35:40.913Z,101554.78
2023-04-03T18:38:07.751Z,101537.34
2023-04-03T18:40:35.214Z,101552.19
2023-04-03T18:43:02.826Z,101514.72
2023-04-03T18:45:31.542Z,101555.69
2023-04-03T18:48:02.731Z,101550.44
2023-04-03T18:50:32.452Z,101499.94
2023-04-03T18:53:00.474Z,101543.59
2023-04-03T18:58:09.664Z,101562.84
2023-04-03T19:03:29.098Z,101571.63
2023-04-03T19:05:58.622Z,101561.16
2023-04-03T19:08:26.491Z,101575.13
2023-04-03T19:10:55.273Z,101579.50
2023-04-03T19:13:22.176Z,101575.13
2023-04-03T19:15:55.231Z,101574.31
2023-04-03T19:18:25.674Z,101573.44
2023-04-03T19:20:52.457Z,101576.06
2023-04-03T19:23:21.027Z,101544.66
2023-04-03T19:25:49.026Z,101583.06
2023-04-03T19:28:15.792Z,101585.72
2023-04-03T19:30:54.746Z,101564.75
2023-04-03T19:33:27.553Z,101600.56
2023-04-03T19:35:56.589Z,101587.47
2023-04-03T19:38:23.520Z,101603.19
2023-04-03T19:40:59.689Z,101604.94
2023-04-03T19:43:32.251Z,101608.44
2023-04-03T19:46:01.290Z,101574.38
2023-04-03T19:48:28.995Z,101604.06
2023-04-03T19:50:56.243Z,101616.31
2023-04-03T19:53:33.078Z,101602.31
2023-04-03T19:56:00.899Z,101604.06
2023-04-03T19:58:30.530Z,101607.56
2023-04-03T20:00:59.310Z,101585.75
2023-04-03T20:03:26.941Z,101601.47
2023-04-03T20:05:55.043Z,101590.09
2023-04-03T20:08:22.087Z,101611.06
2023-04-03T20:18:57.047Z,101568.25
2023-04-03T20:21:31.271Z,101580.50
2023-04-03T20:24:00.653Z,101563.91
2023-04-03T20:29:22.428Z,101619.78
2023-04-03T20:31:49.613Z,101621.53
2023-04-03T20:34:21.512Z,101619.75
2023-04-03T20:36:50.256Z,101576.97
2023-04-03T20:57:54.297Z,101609.22
2023-04-03T21:00:21.867Z,101622.31
2023-04-03T21:02:48.594Z,101616.22
2023-04-03T21:05:20.532Z,101605.72
2023-04-03T21:08:28.892Z,101616.16
2023-04-03T21:11:33.574Z,101616.13
2023-04-03T21:14:39.780Z,101621.34
2023-04-03T21:17:06.321Z,101613.50
2023-04-03T21:19:36.542Z,101603.88
2023-04-03T21:22:03.779Z,101605.63
2023-04-03T21:24:34.358Z,101616.94
2023-04-03T21:27:03.616Z,101604.72
2023-04-03T21:29:35.014Z,101575.00
2023-04-03T21:32:02.328Z,101561.84
2023-04-03T21:34:30.521Z,101596.81
2023-04-03T21:37:06.299Z,101598.53
2023-04-03T21:39:35.867Z,101607.28
2023-04-03T21:42:03.767Z,101597.66
2023-04-03T21:44:32.305Z,101606.38
2023-04-03T21:47:01.997Z,101611.59
2023-04-03T21:49:29.758Z,101605.47
2023-04-03T21:51:57.049Z,101612.44
2023-04-03T21:54:27.132Z,101601.94
2023-04-03T21:57:02.805Z,101594.97
2023-04-03T21:59:30.849Z,101579.19
2023-04-03T22:01:57.674Z,101588.78
2023-04-03T22:04:27.759Z,101600.13
2023-04-03T22:06:54.651Z,101597.47
2023-04-03T22:09:24.994Z,101566.03
2023-04-03T22:11:51.979Z,101597.47
2023-04-03T22:14:19.918Z,101599.16
2023-04-03T22:16:46.869Z,101579.97
2023-04-03T22:19:14.102Z,101594.81
2023-04-03T22:21:42.678Z,101552.78
2023-04-03T22:24:11.189Z,101537.91
2023-04-03T22:26:43.169Z,101599.13
2023-04-03T22:29:12.547Z,101571.13
2023-04-03T22:31:46.107Z,101587.69
2023-04-03T22:34:12.880Z,101546.63
2023-04-03T22:36:43.702Z,101548.31
2023-04-03T22:39:12.519Z,101606.84
2023-04-03T22:41:39.498Z,101606.81
2023-04-03T22:44:07.368Z,101543.84
2023-04-03T22:46:34.167Z,101608.50
2023-04-03T22:49:01.047Z,101526.34
2023-04-03T22:51:27.753Z,101555.13
2023-04-03T22:53:55.647Z,101558.59
2023-04-03T22:56:26.366Z,101557.75
2023-04-03T22:58:53.468Z,101580.47
2023-04-03T23:01:22.844Z,101500.03
2023-04-03T23:03:50.292Z,101554.22
2023-04-03T23:06:17.269Z,101561.16
2023-04-03T23:08:43.998Z,101541.03
2023-04-03T23:11:12.221Z,101602.22
2023-04-03T23:13:38.885Z,101601.31
2023-04-03T23:16:08.122Z,101582.91
2023-04-03T23:18:40.598Z,101604.78
2023-04-03T23:21:07.991Z,101594.25
2023-04-03T23:23:34.618Z,101591.63
2023-04-03T23:26:02.517Z,101565.31
2023-04-03T23:28:29.836Z,101593.31
2023-04-03T23:31:02.209Z,101543.44
2023-04-03T23:33:32.099Z,101576.66
2023-04-03T23:36:00.683Z,101601.16
2023-04-03T23:38:27.331Z,101588.00
2023-04-03T23:40:53.919Z,101615.06
2023-04-03T23:43:21.421Z,101599.31
2023-04-03T23:45:48.029Z,101608.91
2023-04-03T23:48:15.883Z,101594.03
2023-04-03T23:50:43.688Z,101566.88
2023-04-03T23:53:13.196Z,101541.47
2023-04-03T23:55:41.010Z,101612.31
2023-04-03T23:58:07.829Z,101604.44
